sensor_id;sensor_type;location;lat;lon;timestamp;pressure;altitude;pressure_sealevel;temperature;humidity
8653;BME280;4364;52.426;9.424;2022-12-13T00:01:49;100861.22;;;-7.66;86.48
8653;BME280;4364;52.426;9.424;2022-12-13T00:04:18;100863.03;;;-7.67;86.44
8653;BME280;4364;52.426;9.424;2022-12-13T00:06:45;100863.34;;;-7.70;86.49
8653;BME280;4364;52.426;9.424;2022-12-13T00:09:14;100860.84;;;-7.71;86.56
8653;BME280;4364;52.426;9.424;2022-12-13T00:11:41;100858.44;;;-7.65;86.79
8653;BME280;4364;52.426;9.424;2022-12-13T00:14:08;100857.56;;;-7.65;86.61
8653;BME280;4364;52.426;9.424;2022-12-13T00:16:34;100854.25;;;-7.67;86.55
8653;BME280;4364;52.426;9.424;2022-12-13T00:19:01;100855.28;;;-7.68;86.14
8653;BME280;4364;52.426;9.424;2022-12-13T00:21:30;100849.50;;;-7.64;86.41
8653;BME280;4364;52.426;9.424;2022-12-13T00:23:57;100854.78;;;-7.64;86.18
8653;BME280;4364;52.426;9.424;2022-12-13T00:26:27;100847.34;;;-7.68;86.11
8653;BME280;4364;52.426;9.424;2022-12-13T00:28:55;100842.72;;;-7.66;86.26
8653;BME280;4364;52.426;9.424;2022-12-13T00:31:23;100838.63;;;-7.60;86.40
8653;BME280;4364;52.426;9.424;2022-12-13T00:34:11;100831.56;;;-7.60;86.71
8653;BME280;4364;52.426;9.424;2022-12-13T00:36:37;100835.22;;;-7.53;86.37
8653;BME280;4364;52.426;9.424;2022-12-13T00:39:03;100832.22;;;-7.58;86.25
8653;BME280;4364;52.426;9.424;2022-12-13T00:41:32;100828.28;;;-7.54;86.19
8653;BME280;4364;52.426;9.424;2022-12-13T00:43:59;100824.81;;;-7.54;86.89
8653;BME280;4364;52.426;9.424;2022-12-13T00:46:27;100829.44;;;-7.56;86.68
8653;BME280;4364;52.426;9.424;2022-12-13T00:48:56;100826.28;;;-7.60;86.61
8653;BME280;4364;52.426;9.424;2022-12-13T00:51:23;100829.88;;;-7.61;86.88
8653;BME280;4364;52.426;9.424;2022-12-13T00:53:51;100822.22;;;-7.72;86.53
8653;BME280;4364;52.426;9.424;2022-12-13T00:56:20;100822.22;;;-7.72;86.87
8653;BME280;4364;52.426;9.424;2022-12-13T00:58:47;100815.97;;;-7.71;87.09
8653;BME280;4364;52.426;9.424;2022-12-13T01:01:19;100819.13;;;-7.68;86.68
8653;BME280;4364;52.426;9.424;2022-12-13T01:03:46;100815.97;;;-7.71;86.93
8653;BME280;4364;52.426;9.424;2022-12-13T01:06:17;100814.44;;;-7.74;86.81
8653;BME280;4364;52.426;9.424;2022-12-13T01:08:45;100813.78;;;-7.76;86.80
8653;BME280;4364;52.426;9.424;2022-12-13T01:11:12;100813.94;;;-7.77;86.63
8653;BME280;4364;52.426;9.424;2022-12-13T01:13:39;100816.41;;;-7.76;86.79
8653;BME280;4364;52.426;9.424;2022-12-13T01:16:08;100813.25;;;-7.79;86.76
8653;BME280;4364;52.426;9.424;2022-12-13T01:18:36;100812.09;;;-7.77;86.77
8653;BME280;4364;52.426;9.424;2022-12-13T01:21:09;100821.34;;;-7.81;86.68
8653;BME280;4364;52.426;9.424;2022-12-13T01:23:36;100820.16;;;-7.87;86.38
8653;BME280;4364;52.426;9.424;2022-12-13T01:26:05;100822.94;;;-7.88;86.53
8653;BME280;4364;52.426;9.424;2022-12-13T01:28:32;100806.25;;;-7.89;86.36
8653;BME280;4364;52.426;9.424;2022-12-13T01:31:00;100813.50;;;-7.91;86.19
8653;BME280;4364;52.426;9.424;2022-12-13T01:33:28;100810.63;;;-7.97;86.00
8653;BME280;4364;52.426;9.424;2022-12-13T01:35:55;100811.47;;;-7.97;86.38
8653;BME280;4364;52.426;9.424;2022-12-13T01:38:22;100818.94;;;-7.92;86.32
8653;BME280;4364;52.426;9.424;2022-12-13T01:40:52;100816.06;;;-7.99;86.13
8653;BME280;4364;52.426;9.424;2022-12-13T01:43:52;100820.69;;;-8.01;86.18
8653;BME280;4364;52.426;9.424;2022-12-13T01:46:19;100811.78;;;-8.00;86.34
8653;BME280;4364;52.426;9.424;2022-12-13T01:48:52;100816.38;;;-8.02;86.27
8653;BME280;4364;52.426;9.424;2022-12-13T01:51:25;100817.66;;;-8.06;85.89
8653;BME280;4364;52.426;9.424;2022-12-13T01:53:55;100825.13;;;-8.02;86.24
8653;BME280;4364;52.426;9.424;2022-12-13T01:56:30;100823.31;;;-8.01;85.92
8653;BME280;4364;52.426;9.424;2022-12-13T01:58:59;100824.44;;;-8.04;86.12
8653;BME280;4364;52.426;9.424;2022-12-13T02:01:27;100823.63;;;-8.04;85.94
8653;BME280;4364;52.426;9.424;2022-12-13T02:03:54;100817.38;;;-8.03;86.07
8653;BME280;4364;52.426;9.424;2022-12-13T02:06:33;100816.38;;;-8.02;85.80
8653;BME280;4364;52.426;9.424;2022-12-13T02:09:02;100819.63;;;-8.08;85.21
8653;BME280;4364;52.426;9.424;2022-12-13T02:11:29;100824.22;;;-8.10;85.57
8653;BME280;4364;52.426;9.424;2022-12-13T02:13:55;100822.13;;;-8.07;85.36
8653;BME280;4364;52.426;9.424;2022-12-13T02:28:43;100812.53;;;-7.90;85.64
8653;BME280;4364;52.426;9.424;2022-12-13T02:31:22;100812.84;;;-7.93;85.88
8653;BME280;4364;52.426;9.424;2022-12-13T02:34:00;100807.25;;;-7.90;86.00
8653;BME280;4364;52.426;9.424;2022-12-13T02:36:53;100805.06;;;-7.94;86.17
8653;BME280;4364;52.426;9.424;2022-12-13T02:39:27;100805.50;;;-7.99;85.89
8653;BME280;4364;52.426;9.424;2022-12-13T02:42:00;100799.09;;;-7.96;86.38
8653;BME280;4364;52.426;9.424;2022-12-13T02:44:34;100787.41;;;-7.94;86.05
8653;BME280;4364;52.426;9.424;2022-12-13T02:49:50;100786.00;;;-8.06;85.78
8653;BME280;4364;52.426;9.424;2022-12-13T02:52:22;100789.47;;;-8.06;86.01
8653;BME280;4364;52.426;9.424;2022-12-13T02:54:53;100792.53;;;-8.10;85.91
8653;BME280;4364;52.426;9.424;2022-12-13T02:57:33;100784.63;;;-8.10;86.10
8653;BME280;4364;52.426;9.424;2022-12-13T03:00:12;100790.97;;;-8.03;85.90
8653;BME280;4364;52.426;9.424;2022-12-13T03:11:03;100798.13;;;-7.95;85.54
8653;BME280;4364;52.426;9.424;2022-12-13T03:16:12;100788.56;;;-7.96;85.49
8653;BME280;4364;52.426;9.424;2022-12-13T03:18:49;100785.06;;;-7.97;85.74
8653;BME280;4364;52.426;9.424;2022-12-13T03:21:17;100777.63;;;-8.02;85.55
8653;BME280;4364;52.426;9.424;2022-12-13T03:23:45;100785.56;;;-8.02;85.77
8653;BME280;4364;52.426;9.424;2022-12-13T03:26:19;100776.13;;;-8.04;85.60
8653;BME280;4364;52.426;9.424;2022-12-13T03:28:46;100772.19;;;-8.00;85.69
8653;BME280;4364;52.426;9.424;2022-12-13T03:31:13;100774.41;;;-8.13;85.26
8653;BME280;4364;52.426;9.424;2022-12-13T03:33:40;100782.00;;;-8.10;85.65
8653;BME280;4364;52.426;9.424;2022-12-13T03:36:07;100772.94;;;-8.08;85.84
8653;BME280;4364;52.426;9.424;2022-12-13T03:38:34;100780.56;;;-8.05;85.76
8653;BME280;4364;52.426;9.424;2022-12-13T03:41:04;100783.94;;;-7.94;85.71
8653;BME280;4364;52.426;9.424;2022-12-13T03:43:32;100778.50;;;-7.93;85.32
8653;BME280;4364;52.426;9.424;2022-12-13T03:45:59;100770.38;;;-7.99;85.22
8653;BME280;4364;52.426;9.424;2022-12-13T03:48:27;100765.41;;;-8.03;85.19
8653;BME280;4364;52.426;9.424;2022-12-13T03:50:54;100779.41;;;-8.02;85.42
8653;BME280;4364;52.426;9.424;2022-12-13T03:53:22;100773.84;;;-7.99;85.11
8653;BME280;4364;52.426;9.424;2022-12-13T03:56:03;100777.41;;;-8.08;85.20
8653;BME280;4364;52.426;9.424;2022-12-13T03:58:30;100782.06;;;-8.02;85.46
8653;BME280;4364;52.426;9.424;2022-12-13T04:01:11;100787.19;;;-8.01;85.25
8653;BME280;4364;52.426;9.424;2022-12-13T04:03:39;100786.66;;;-8.04;85.03
8653;BME280;4364;52.426;9.424;2022-12-13T04:06:07;100783.06;;;-8.03;84.82
8653;BME280;4364;52.426;9.424;2022-12-13T04:08:35;100791.44;;;-8.08;84.94
8653;BME280;4364;52.426;9.424;2022-12-13T04:11:02;100784.13;;;-8.14;85.03
8653;BME280;4364;52.426;9.424;2022-12-13T04:13:49;100784.56;;;-8.19;85.05
8653;BME280;4364;52.426;9.424;2022-12-13T04:16:16;100790.38;;;-8.15;85.27
8653;BME280;4364;52.426;9.424;2022-12-13T04:18:42;100784.25;;;-8.15;85.25
8653;BME280;4364;52.426;9.424;2022-12-13T04:21:09;100791.88;;;-8.12;85.07
8653;BME280;4364;52.426;9.424;2022-12-13T04:23:36;100787.59;;;-8.13;85.33
8653;BME280;4364;52.426;9.424;2022-12-13T04:26:02;100784.97;;;-8.13;85.40
8653;BME280;4364;52.426;9.424;2022-12-13T04:28:29;100786.97;;;-8.07;85.69
8653;BME280;4364;52.426;9.424;2022-12-13T04:30:55;100783.56;;;-7.99;86.09
8653;BME280;4364;52.426;9.424;2022-12-13T04:33:22;100780.13;;;-8.00;86.21
8653;BME280;4364;52.426;9.424;2022-12-13T04:35:49;100789.38;;;-7.96;86.13
8653;BME280;4364;52.426;9.424;2022-12-13T04:38:16;100781.09;;;-8.01;86.24
8653;BME280;4364;52.426;9.424;2022-12-13T04:40:43;100781.59;;;-7.97;86.30
8653;BME280;4364;52.426;9.424;2022-12-13T04:43:10;100776.78;;;-8.02;85.81
8653;BME280;4364;52.426;9.424;2022-12-13T04:45:36;100771.66;;;-8.04;86.30
8653;BME280;4364;52.426;9.424;2022-12-13T04:48:03;100769.88;;;-8.03;86.51
8653;BME280;4364;52.426;9.424;2022-12-13T04:50:31;100767.06;;;-8.02;86.65
8653;BME280;4364;52.426;9.424;2022-12-13T04:52:57;100762.63;;;-8.01;86.71
8653;BME280;4364;52.426;9.424;2022-12-13T04:55:24;100768.09;;;-7.94;86.63
8653;BME280;4364;52.426;9.424;2022-12-13T04:57:51;100769.94;;;-7.95;86.69
8653;BME280;4364;52.426;9.424;2022-12-13T05:00:17;100763.63;;;-7.94;87.09
8653;BME280;4364;52.426;9.424;2022-12-13T05:02:46;100768.78;;;-7.92;86.89
8653;BME280;4364;52.426;9.424;2022-12-13T05:05:13;100764.50;;;-7.93;87.58
8653;BME280;4364;52.426;9.424;2022-12-13T05:07:40;100765.06;;;-7.82;87.83
8653;BME280;4364;52.426;9.424;2022-12-13T05:10:09;100767.06;;;-7.75;88.48
8653;BME280;4364;52.426;9.424;2022-12-13T05:12:36;100763.16;;;-7.71;88.34
8653;BME280;4364;52.426;9.424;2022-12-13T05:15:03;100765.94;;;-7.73;88.89
8653;BME280;4364;52.426;9.424;2022-12-13T05:17:30;100755.28;;;-7.63;89.05
8653;BME280;4364;52.426;9.424;2022-12-13T05:19:57;100753.44;;;-7.63;88.74
8653;BME280;4364;52.426;9.424;2022-12-13T05:22:23;100751.47;;;-7.60;88.98
8653;BME280;4364;52.426;9.424;2022-12-13T05:24:50;100758.06;;;-7.65;89.03
8653;BME280;4364;52.426;9.424;2022-12-13T05:27:17;100755.44;;;-7.65;89.17
8653;BME280;4364;52.426;9.424;2022-12-13T05:29:55;100760.88;;;-7.66;89.36
8653;BME280;4364;52.426;9.424;2022-12-13T05:32:32;100747.50;;;-7.65;89.32
8653;BME280;4364;52.426;9.424;2022-12-13T05:35:14;100750.66;;;-7.61;89.18
8653;BME280;4364;52.426;9.424;2022-12-13T05:37:52;100749.34;;;-7.57;89.02
8653;BME280;4364;52.426;9.424;2022-12-13T05:40:22;100747.00;;;-7.68;88.60
8653;BME280;4364;52.426;9.424;2022-12-13T05:42:48;100745.00;;;-7.66;88.35
8653;BME280;4364;52.426;9.424;2022-12-13T05:45:16;100748.28;;;-7.72;88.58
8653;BME280;4364;52.426;9.424;2022-12-13T05:47:44;100751.06;;;-7.74;89.32
8653;BME280;4364;52.426;9.424;2022-12-13T05:50:12;100751.56;;;-7.70;89.31
8653;BME280;4364;52.426;9.424;2022-12-13T05:52:39;100748.28;;;-7.72;88.96
8653;BME280;4364;52.426;9.424;2022-12-13T05:55:05;100743.66;;;-7.70;88.94
8653;BME280;4364;52.426;9.424;2022-12-13T05:57:32;100751.13;;;-7.66;89.23
8653;BME280;4364;52.426;9.424;2022-12-13T05:59:59;100750.16;;;-7.65;89.47
8653;BME280;4364;52.426;9.424;2022-12-13T06:02:27;100751.28;;;-7.67;89.05
8653;BME280;4364;52.426;9.424;2022-12-13T06:04:54;100742.31;;;-7.74;89.00
8653;BME280;4364;52.426;9.424;2022-12-13T06:07:20;100750.72;;;-7.79;88.67
8653;BME280;4364;52.426;9.424;2022-12-13T06:09:46;100747.56;;;-7.83;88.71
8653;BME280;4364;52.426;9.424;2022-12-13T06:12:13;100743.19;;;-7.92;88.67
8653;BME280;4364;52.426;9.424;2022-12-13T06:14:58;100749.47;;;-7.93;88.88
8653;BME280;4364;52.426;9.424;2022-12-13T06:17:34;100753.13;;;-7.86;89.08
8653;BME280;4364;52.426;9.424;2022-12-13T06:20:02;100744.72;;;-7.89;89.04
8653;BME280;4364;52.426;9.424;2022-12-13T06:22:49;100743.94;;;-7.82;89.32
8653;BME280;4364;52.426;9.424;2022-12-13T06:25:16;100739.84;;;-7.76;89.08
8653;BME280;4364;52.426;9.424;2022-12-13T06:27:58;100740.16;;;-7.79;88.68
8653;BME280;4364;52.426;9.424;2022-12-13T06:30:28;100734.66;;;-7.86;88.69
8653;BME280;4364;52.426;9.424;2022-12-13T06:32:55;100735.81;;;-7.88;89.14
8653;BME280;4364;52.426;9.424;2022-12-13T06:35:22;100736.78;;;-7.89;89.14
8653;BME280;4364;52.426;9.424;2022-12-13T06:37:55;100743.19;;;-7.92;89.35
8653;BME280;4364;52.426;9.424;2022-12-13T06:40:30;100744.03;;;-7.91;89.34
8653;BME280;4364;52.426;9.424;2022-12-13T06:42:57;100739.88;;;-7.94;89.15
8653;BME280;4364;52.426;9.424;2022-12-13T06:45:24;100738.09;;;-7.93;88.78
8653;BME280;4364;52.426;9.424;2022-12-13T06:47:51;100741.03;;;-7.96;88.59
8653;BME280;4364;52.426;9.424;2022-12-13T06:50:18;100741.19;;;-7.98;89.15
8653;BME280;4364;52.426;9.424;2022-12-13T06:52:45;100752.25;;;-7.94;88.89
8653;BME280;4364;52.426;9.424;2022-12-13T06:55:12;100754.91;;;-7.94;88.91
8653;BME280;4364;52.426;9.424;2022-12-13T06:57:39;100757.91;;;-7.89;89.16
8653;BME280;4364;52.426;9.424;2022-12-13T07:00:07;100750.34;;;-7.84;89.15
8653;BME280;4364;52.426;9.424;2022-12-13T07:02:33;100758.94;;;-7.82;89.21
8653;BME280;4364;52.426;9.424;2022-12-13T07:05:03;100762.09;;;-7.78;89.04
8653;BME280;4364;52.426;9.424;2022-12-13T07:07:29;100760.44;;;-7.79;88.71
8653;BME280;4364;52.426;9.424;2022-12-13T07:09:56;100766.34;;;-7.86;88.98
8653;BME280;4364;52.426;9.424;2022-12-13T07:12:22;100771.09;;;-7.89;88.82
8653;BME280;4364;52.426;9.424;2022-12-13T07:14:50;100769.44;;;-7.90;89.30
8653;BME280;4364;52.426;9.424;2022-12-13T07:17:17;100769.13;;;-7.87;89.29
8653;BME280;4364;52.426;9.424;2022-12-13T07:19:58;100771.41;;;-7.92;89.05
8653;BME280;4364;52.426;9.424;2022-12-13T07:22:26;100772.94;;;-7.90;89.04
8653;BME280;4364;52.426;9.424;2022-12-13T07:24:53;100778.41;;;-7.83;89.61
8653;BME280;4364;52.426;9.424;2022-12-13T07:27:19;100774.78;;;-7.82;89.19
8653;BME280;4364;52.426;9.424;2022-12-13T07:29:46;100780.22;;;-7.84;89.17
8653;BME280;4364;52.426;9.424;2022-12-13T07:32:12;100779.09;;;-7.81;89.31
8653;BME280;4364;52.426;9.424;2022-12-13T07:34:40;100778.94;;;-7.79;89.58
8653;BME280;4364;52.426;9.424;2022-12-13T07:37:08;100779.16;;;-7.73;89.26
8653;BME280;4364;52.426;9.424;2022-12-13T07:39:54;100787.13;;;-7.65;89.43
8653;BME280;4364;52.426;9.424;2022-12-13T07:42:29;100778.56;;;-7.58;89.21
8653;BME280;4364;52.426;9.424;2022-12-13T07:44:55;100778.94;;;-7.53;89.12
8653;BME280;4364;52.426;9.424;2022-12-13T07:47:21;100778.41;;;-7.57;88.99
8653;BME280;4364;52.426;9.424;2022-12-13T07:49:48;100794.59;;;-7.52;89.09
8653;BME280;4364;52.426;9.424;2022-12-13T07:52:15;100794.28;;;-7.49;89.14
8653;BME280;4364;52.426;9.424;2022-12-13T07:54:42;100791.03;;;-7.42;89.27
8653;BME280;4364;52.426;9.424;2022-12-13T07:57:09;100796.47;;;-7.44;89.17
8653;BME280;4364;52.426;9.424;2022-12-13T07:59:35;100799.47;;;-7.39;89.26
8653;BME280;4364;52.426;9.424;2022-12-13T08:02:02;100796.69;;;-7.37;89.14
8653;BME280;4364;52.426;9.424;2022-12-13T08:04:28;100786.09;;;-7.37;88.89
8653;BME280;4364;52.426;9.424;2022-12-13T08:07:07;100791.38;;;-7.37;89.24
8653;BME280;4364;52.426;9.424;2022-12-13T08:09:36;100795.69;;;-7.36;89.10
8653;BME280;4364;52.426;9.424;2022-12-13T08:12:03;100796.81;;;-7.39;89.10
8653;BME280;4364;52.426;9.424;2022-12-13T08:14:30;100803.13;;;-7.40;89.54
8653;BME280;4364;52.426;9.424;2022-12-13T08:16:57;100793.22;;;-7.38;89.30
8653;BME280;4364;52.426;9.424;2022-12-13T08:19:23;100800.69;;;-7.33;89.64
8653;BME280;4364;52.426;9.424;2022-12-13T08:21:50;100799.88;;;-7.26;89.52
8653;BME280;4364;52.426;9.424;2022-12-13T08:24:27;100800.69;;;-7.25;89.60
8653;BME280;4364;52.426;9.424;2022-12-13T08:26:54;100805.16;;;-7.26;89.37
8653;BME280;4364;52.426;9.424;2022-12-13T08:29:26;100797.22;;;-7.26;89.15
8653;BME280;4364;52.426;9.424;2022-12-13T08:32:09;100804.03;;;-7.23;89.19
8653;BME280;4364;52.426;9.424;2022-12-13T08:34:36;100794.22;;;-7.31;89.40
8653;BME280;4364;52.426;9.424;2022-12-13T08:37:03;100803.97;;;-7.31;89.78
8653;BME280;4364;52.426;9.424;2022-12-13T08:39:31;100797.38;;;-7.27;89.89
8653;BME280;4364;52.426;9.424;2022-12-13T08:42:11;100804.22;;;-7.16;89.91
8653;BME280;4364;52.426;9.424;2022-12-13T08:44:45;100800.25;;;-7.12;90.14
8653;BME280;4364;52.426;9.424;2022-12-13T08:47:12;100791.25;;;-7.01;90.58
8653;BME280;4364;52.426;9.424;2022-12-13T08:49:57;100783.63;;;-7.04;91.02
8653;BME280;4364;52.426;9.424;2022-12-13T08:52:29;100786.97;;;-6.94;90.83
8653;BME280;4364;52.426;9.424;2022-12-13T08:54:55;100787.97;;;-6.87;90.81
8653;BME280;4364;52.426;9.424;2022-12-13T08:57:21;100790.63;;;-6.79;90.93
8653;BME280;4364;52.426;9.424;2022-12-13T08:59:48;100789.00;;;-6.72;90.73
8653;BME280;4364;52.426;9.424;2022-12-13T09:02:15;100788.50;;;-6.67;90.66
8653;BME280;4364;52.426;9.424;2022-12-13T09:04:43;100801.56;;;-6.65;90.67
8653;BME280;4364;52.426;9.424;2022-12-13T09:07:09;100791.19;;;-6.59;91.22
8653;BME280;4364;52.426;9.424;2022-12-13T09:09:36;100796.81;;;-6.54;91.05
8653;BME280;4364;52.426;9.424;2022-12-13T09:12:04;100786.06;;;-6.52;91.32
8653;BME280;4364;52.426;9.424;2022-12-13T09:14:36;100786.88;;;-6.52;91.04
8653;BME280;4364;52.426;9.424;2022-12-13T09:17:11;100789.03;;;-6.47;91.38
8653;BME280;4364;52.426;9.424;2022-12-13T09:19:50;100796.03;;;-6.38;91.80
8653;BME280;4364;52.426;9.424;2022-12-13T09:22:23;100799.66;;;-6.30;91.83
8653;BME280;4364;52.426;9.424;2022-12-13T09:25:00;100798.69;;;-6.21;91.86
8653;BME280;4364;52.426;9.424;2022-12-13T09:27:30;100795.84;;;-6.11;91.88
8653;BME280;4364;52.426;9.424;2022-12-13T09:30:06;100798.00;;;-6.07;91.92
8653;BME280;4364;52.426;9.424;2022-12-13T09:32:33;100792.22;;;-6.02;91.95
8653;BME280;4364;52.426;9.424;2022-12-13T09:35:00;100788.94;;;-5.96;92.64
8653;BME280;4364;52.426;9.424;2022-12-13T09:37:28;100789.53;;;-5.94;93.07
8653;BME280;4364;52.426;9.424;2022-12-13T09:39:55;100796.47;;;-5.85;92.89
8653;BME280;4364;52.426;9.424;2022-12-13T09:42:24;100787.06;;;-5.79;93.28
8653;BME280;4364;52.426;9.424;2022-12-13T09:45:06;100797.97;;;-5.74;93.88
8653;BME280;4364;52.426;9.424;2022-12-13T09:47:48;100800.78;;;-5.67;94.22
8653;BME280;4364;52.426;9.424;2022-12-13T09:50:27;100800.94;;;-5.61;94.89
8653;BME280;4364;52.426;9.424;2022-12-13T09:53:04;100788.66;;;-5.62;95.50
8653;BME280;4364;52.426;9.424;2022-12-13T09:55:48;100795.44;;;-5.43;94.96
8653;BME280;4364;52.426;9.424;2022-12-13T09:58:29;100785.63;;;-5.34;94.64
8653;BME280;4364;52.426;9.424;2022-12-13T10:00:57;100787.16;;;-5.40;94.85
8653;BME280;4364;52.426;9.424;2022-12-13T10:03:25;100792.94;;;-5.36;95.08
8653;BME280;4364;52.426;9.424;2022-12-13T10:05:57;100783.91;;;-5.18;95.08
8653;BME280;4364;52.426;9.424;2022-12-13T10:08:31;100785.28;;;-5.23;95.29
8653;BME280;4364;52.426;9.424;2022-12-13T10:11:00;100781.75;;;-5.15;95.56
8653;BME280;4364;52.426;9.424;2022-12-13T10:13:40;100785.69;;;-5.03;95.67
8653;BME280;4364;52.426;9.424;2022-12-13T10:18:49;100781.72;;;-5.07;96.21
8653;BME280;4364;52.426;9.424;2022-12-13T10:21:24;100783.66;;;-4.92;96.29
8653;BME280;4364;52.426;9.424;2022-12-13T10:23:53;100778.19;;;-4.91;96.28
8653;BME280;4364;52.426;9.424;2022-12-13T10:26:39;100774.47;;;-4.81;95.81
8653;BME280;4364;52.426;9.424;2022-12-13T10:29:07;100776.94;;;-4.80;96.08
8653;BME280;4364;52.426;9.424;2022-12-13T10:31:46;100784.41;;;-4.75;96.09
8653;BME280;4364;52.426;9.424;2022-12-13T10:34:19;100783.72;;;-4.69;95.96
8653;BME280;4364;52.426;9.424;2022-12-13T10:36:47;100782.81;;;-4.61;95.60
8653;BME280;4364;52.426;9.424;2022-12-13T10:39:35;100784.72;;;-4.47;95.91
8653;BME280;4364;52.426;9.424;2022-12-13T10:42:04;100777.94;;;-4.50;95.51
8653;BME280;4364;52.426;9.424;2022-12-13T10:44:31;100778.78;;;-4.49;95.60
8653;BME280;4364;52.426;9.424;2022-12-13T10:47:13;100771.44;;;-4.47;96.03
8653;BME280;4364;52.426;9.424;2022-12-13T10:49:55;100773.22;;;-4.39;96.20
8653;BME280;4364;52.426;9.424;2022-12-13T10:52:31;100768.22;;;-4.34;96.05
8653;BME280;4364;52.426;9.424;2022-12-13T10:55:04;100761.53;;;-4.30;96.11
8653;BME280;4364;52.426;9.424;2022-12-13T10:57:51;100760.59;;;-4.14;95.63
8653;BME280;4364;52.426;9.424;2022-12-13T11:00:41;100755.09;;;-4.13;95.50
8653;BME280;4364;52.426;9.424;2022-12-13T11:03:54;100749.97;;;-4.14;95.46
8653;BME280;4364;52.426;9.424;2022-12-13T11:06:40;100749.88;;;-4.06;95.14
8653;BME280;4364;52.426;9.424;2022-12-13T11:09:26;100746.22;;;-4.05;95.35
8653;BME280;4364;52.426;9.424;2022-12-13T11:11:56;100745.69;;;-4.00;95.50
8653;BME280;4364;52.426;9.424;2022-12-13T11:14:27;100738.00;;;-3.95;95.45
8653;BME280;4364;52.426;9.424;2022-12-13T11:17:15;100735.63;;;-3.90;95.39
8653;BME280;4364;52.426;9.424;2022-12-13T11:19:47;100734.63;;;-3.89;95.09
8653;BME280;4364;52.426;9.424;2022-12-13T11:22:26;100728.56;;;-3.83;95.11
8653;BME280;4364;52.426;9.424;2022-12-13T11:25:02;100726.38;;;-3.79;94.87
8653;BME280;4364;52.426;9.424;2022-12-13T11:35:59;100705.78;;;-3.62;94.18
8653;BME280;4364;52.426;9.424;2022-12-13T11:38:35;100710.34;;;-3.56;94.74
8653;BME280;4364;52.426;9.424;2022-12-13T11:41:12;100699.91;;;-3.43;94.54
8653;BME280;4364;52.426;9.424;2022-12-13T11:44:07;100693.13;;;-3.45;93.72
8653;BME280;4364;52.426;9.424;2022-12-13T11:46:51;100711.84;;;-3.39;93.93
8653;BME280;4364;52.426;9.424;2022-12-13T11:49:40;100700.84;;;-3.36;93.59
8653;BME280;4364;52.426;9.424;2022-12-13T11:52:16;100701.72;;;-3.28;93.78
8653;BME280;4364;52.426;9.424;2022-12-13T11:54:58;100702.72;;;-3.29;93.16
8653;BME280;4364;52.426;9.424;2022-12-13T12:00:29;100699.69;;;-3.26;91.64
8653;BME280;4364;52.426;9.424;2022-12-13T12:03:12;100690.81;;;-3.19;92.20
8653;BME280;4364;52.426;9.424;2022-12-13T12:05:45;100685.94;;;-3.15;91.98
8653;BME280;4364;52.426;9.424;2022-12-13T12:08:29;100679.47;;;-3.06;91.94
8653;BME280;4364;52.426;9.424;2022-12-13T12:13:44;100675.88;;;-2.98;91.16
8653;BME280;4364;52.426;9.424;2022-12-13T12:16:28;100674.88;;;-2.97;90.71
8653;BME280;4364;52.426;9.424;2022-12-13T12:18:57;100668.78;;;-2.91;91.30
8653;BME280;4364;52.426;9.424;2022-12-13T12:21:41;100662.28;;;-2.88;89.93
8653;BME280;4364;52.426;9.424;2022-12-13T12:37:24;100662.41;;;-2.75;87.58
8653;BME280;4364;52.426;9.424;2022-12-13T12:43:07;100656.38;;;-2.62;87.08
8653;BME280;4364;52.426;9.424;2022-12-13T12:57:13;100654.22;;;-2.52;85.92
8653;BME280;4364;52.426;9.424;2022-12-13T13:00:02;100646.47;;;-2.47;85.59
8653;BME280;4364;52.426;9.424;2022-12-13T13:02:41;100651.00;;;-2.47;85.65
8653;BME280;4364;52.426;9.424;2022-12-13T13:05:20;100647.09;;;-2.45;85.47
8653;BME280;4364;52.426;9.424;2022-12-13T13:07:54;100640.53;;;-2.49;84.73
8653;BME280;4364;52.426;9.424;2022-12-13T13:10:22;100648.09;;;-2.46;85.12
8653;BME280;4364;52.426;9.424;2022-12-13T13:12:52;100642.84;;;-2.39;85.66
8653;BME280;4364;52.426;9.424;2022-12-13T13:21:30;100643.31;;;-2.35;85.66
8653;BME280;4364;52.426;9.424;2022-12-13T13:26:39;100634.47;;;-2.36;85.85
8653;BME280;4364;52.426;9.424;2022-12-13T13:37:54;100643.81;;;-2.47;87.22
8653;BME280;4364;52.426;9.424;2022-12-13T14:00:07;100651.06;;;-2.62;89.69
8653;BME280;4364;52.426;9.424;2022-12-13T14:03:03;100641.78;;;-2.66;89.83
8653;BME280;4364;52.426;9.424;2022-12-13T14:06:22;100646.44;;;-2.53;89.52
8653;BME280;4364;52.426;9.424;2022-12-13T14:11:44;100647.13;;;-2.66;89.39
8653;BME280;4364;52.426;9.424;2022-12-13T14:17:57;100639.44;;;-2.76;90.15
8653;BME280;4364;52.426;9.424;2022-12-13T14:28:55;100638.06;;;-2.93;90.31
8653;BME280;4364;52.426;9.424;2022-12-13T14:31:25;100638.19;;;-3.02;90.60
8653;BME280;4364;52.426;9.424;2022-12-13T14:33:55;100643.50;;;-3.02;91.17
8653;BME280;4364;52.426;9.424;2022-12-13T14:36:28;100653.91;;;-3.07;91.11
8653;BME280;4364;52.426;9.424;2022-12-13T14:38:59;100653.63;;;-3.12;91.36
8653;BME280;4364;52.426;9.424;2022-12-13T14:41:26;100655.84;;;-3.15;91.47
8653;BME280;4364;52.426;9.424;2022-12-13T14:43:53;100652.72;;;-3.19;91.54
8653;BME280;4364;52.426;9.424;2022-12-13T14:46:19;100659.06;;;-3.20;91.96
8653;BME280;4364;52.426;9.424;2022-12-13T14:48:50;100665.03;;;-3.18;92.69
8653;BME280;4364;52.426;9.424;2022-12-13T14:51:31;100655.59;;;-3.21;92.74
8653;BME280;4364;52.426;9.424;2022-12-13T14:53:59;100655.31;;;-3.26;92.32
8653;BME280;4364;52.426;9.424;2022-12-13T14:56:27;100653.84;;;-3.28;92.46
8653;BME280;4364;52.426;9.424;2022-12-13T14:59:00;100655.63;;;-3.36;92.51
8653;BME280;4364;52.426;9.424;2022-12-13T15:01:30;100653.50;;;-3.40;92.33
8653;BME280;4364;52.426;9.424;2022-12-13T15:06:44;100664.16;;;-3.55;92.96
8653;BME280;4364;52.426;9.424;2022-12-13T15:09:15;100662.25;;;-3.61;92.65
8653;BME280;4364;52.426;9.424;2022-12-13T15:11:43;100657.28;;;-3.64;92.92
8653;BME280;4364;52.426;9.424;2022-12-13T15:14:18;100651.50;;;-3.68;93.04
8653;BME280;4364;52.426;9.424;2022-12-13T15:16:51;100649.22;;;-3.71;93.41
8653;BME280;4364;52.426;9.424;2022-12-13T15:19:25;100649.81;;;-3.76;93.16
8653;BME280;4364;52.426;9.424;2022-12-13T15:22:12;100651.53;;;-3.83;93.18
8653;BME280;4364;52.426;9.424;2022-12-13T15:24:43;100646.13;;;-3.89;93.36
8653;BME280;4364;52.426;9.424;2022-12-13T15:27:25;100645.31;;;-3.90;94.91
8653;BME280;4364;52.426;9.424;2022-12-13T15:29:52;100652.47;;;-3.91;94.42
8653;BME280;4364;52.426;9.424;2022-12-13T15:32:20;100651.59;;;-3.91;94.09
8653;BME280;4364;52.426;9.424;2022-12-13T15:34:50;100650.69;;;-3.98;94.50
8653;BME280;4364;52.426;9.424;2022-12-13T15:37:23;100645.09;;;-4.03;94.88
8653;BME280;4364;52.426;9.424;2022-12-13T15:39:59;100651.41;;;-4.04;95.24